Benjamin Butler

Chefscout - Bristol City
25 Nov 2027
Donnerstag
Verarbeitung

Persönlichkeit

Anpassungsfähigkeit (19) Ehrgeiz (2) Kontroverse (16) Loyalität (19) Druck (19) Professionalität (7) Fairness (12) Temperament (4)

Profil

Trainerstil Demokratisch
Lizenz Kontinentale A
Entschlossenheit 9
Menschenführung 4
Motivation 12
Disziplin 7
Arbeitszufriedenheit
100%
Ermüdung
0%
Rolle Chefscout
Gehalt 73.2K p/W
Vertrag 14.03.2029

Leistung

Verhalten Gut
Trainingseffektivität
31%
Spielerentwicklung
45%
Verletzungsprävention
45%
Taktische Umsetzung
20%

Letzte Ereignisse

Nahm an einer Scouting-Besprechung teil jetzt
Nahm an einer Scouting-Besprechung teil jetzt
Spieler begutachtet 7T her
Spieler begutachtet 7T her
Spieler begutachtet 7T her
Spieler begutachtet 7T her
Spieler begutachtet 7T her
Spieler begutachtet 7T her

Aktuell beobachtet

144
Spieler Verein Status Fähigkeit Vertrauen Beobachtet Zuletzt beobachtet Letzte Stimme
Musa Malik Ikorodu City Aktiv 92 / 94 40% 3 24.11.2027 -
Ben Broggio Grimsby Town Aktiv 106 / 113 40% 1 24.11.2027 -
Mikkel Hope Haugesund Aktiv 87 / 102 40% 2 21.11.2027 -
Ibrahim Fullah Charlton Athletic Aktiv 127 / 126 40% 1 21.11.2027 -
Dylan Cabral Arsenal Aktiv 95 / 106 40% 2 20.11.2027 -
Tyson Pearce St. Louis CITY SC Aktiv 98 / 98 40% 1 20.11.2027 -
Diogo Guzmán Montevideo City Torque Aktiv 104 / 119 40% 4 19.11.2027 -
Brandon Álvarez Penarol Aktiv 83 / 95 40% 1 19.11.2027 -
Joel Medina Independiente Aktiv 95 / 122 40% 1 18.11.2027 -
Dominik Chong Qui Atlanta United FC Aktiv 106 / 94 40% 2 17.11.2027 -
Lewis Orford Swindon Town Aktiv 117 / 117 40% 1 17.11.2027 -
Trey Nyoni Rotherham United Aktiv 124 / 144 40% 1 16.11.2027 -
Franco Minerva Platense Aktiv 105 / 123 40% 3 13.11.2027 -
Kevin Angulo America de Cali Aktiv 104 / 114 40% 3 13.11.2027 -
Zak Lovelace Crewe Alexandra Aktiv 114 / 122 40% 1 11.11.2027 -
Colin Guske Orlando City Aktiv 78 / 102 40% 2 10.11.2027 -
Rio Ngumoha Stockport County Aktiv 141 / 150 40% 1 10.11.2027 -
Nicolas Sport Recife Aktiv 107 / 111 40% 1 09.11.2027 -
Wilfred Correa Caracas Aktiv 100 / 98 40% 2 07.11.2027 -
Juan Román Gimenez Estudiantes Aktiv 96 / 104 40% 3 07.11.2027 -
Caleb Yirenkyi Coventry City Aktiv 150 / 144 40% 2 05.11.2027 -
Harbor Miller LA Galaxy Aktiv 97 / 101 40% 2 03.11.2027 -
Francisco Triver River Plate Aktiv 108 / 97 40% 1 03.11.2027 -
Tomás Aranda Boca Juniors Aktiv 118 / 121 40% 2 01.11.2027 -
Christos Mouzakitis Hull City Aktiv 132 / 145 40% 2 30.10.2027 -
Cooper Sanchez Atlanta United FC Aktiv 75 / 97 40% 1 29.10.2027 -
Ethan Williams Peterborough United Aktiv 123 / 126 40% 6 28.10.2027 -
Ruben Ramos LA Galaxy Aktiv 108 / 107 40% 2 28.10.2027 -
Tiago Parente Benfica Aktiv 101 / 112 40% 2 27.10.2027 -
Gilberto Mora Atlético Madrid Aktiv 135 / 147 40% 1 27.10.2027 -
Joel Ezra Enyimba Aktiv 78 / 94 40% 3 25.10.2027 -
Santiago López Independiente Aktiv 132 / 128 40% 2 25.10.2027 -
Luighi Palmeiras Aktiv 96 / 117 40% 1 24.10.2027 -
Demian Rea Banfield Aktiv 98 / 106 40% 1 23.10.2027 -
Chaka Coulibaly Remo Stars Aktiv 97 / 98 40% 2 21.10.2027 -
Aiden Hezarkhani Real Salt Lake Aktiv 96 / 92 40% 2 20.10.2027 -
Luca Williams-Barnett Tranmere Rovers Aktiv 114 / 129 40% 1 19.10.2027 -
Nazareno Petrecca Nueva Chicago Aktiv 96 / 98 40% 1 17.10.2027 -
Ryan McAidoo Gillingham Aktiv 122 / 130 40% 1 14.10.2027 -
Timofey Simanenka Gomel Aktiv 98 / 105 40% 1 14.10.2027 -
Abdoul Ouattara Burton Albion Aktiv 134 / 134 40% 1 12.10.2027 -
Hervin Goyes Deportivo Pasto Aktiv 111 / 111 40% 1 06.10.2027 -
Manu Rodríguez Gijón Aktiv 116 / 111 40% 1 10.08.2027 -
Paulo Cardoso Sporting CP Aktiv 97 / 104 40% 1 26.07.2027 -
Davide Bartesaghi AC Milan Aktiv 125 / 137 40% 1 26.07.2027 -
Calum Agius Crewe Alexandra Aktiv 107 / 105 40% 1 19.07.2027 -
Rodrigo Mora AS Roma Aktiv 142 / 145 40% 1 06.07.2027 -
Finley McAllister Grimsby Town Aktiv 97 / 92 40% 1 21.06.2027 -
Joel McGregor Swindon Town Aktiv 97 / 96 40% 1 21.06.2027 -
Will Norris Wycombe Wanderers Aktiv 117 / 112 40% 2 04.06.2027 -
Jak Alnwick Huddersfield Town Aktiv 121 / 115 40% 1 04.06.2027 -
Pedro de la Vega FC Dallas Bericht bereit 133 / 134 66% 1 01.06.2027 -
Lorenzo Palmisani Frosinone Aktiv 125 / 135 40% 1 01.06.2027 -
Filip Marschall Stevenage Verloren 114 / 114 40% 1 31.05.2027 -
Franz-Ethan Meichtry Genoa Aktiv 125 / 124 40% 2 30.05.2027 -
Brayann Pereira West Bromwich Albion Aktiv 128 / 119 40% 1 30.05.2027 -
Derensili Sanches Fernandes Huddersfield Town Aktiv 122 / 119 40% 5 29.05.2027 -
Shea Lacey Wolverhampton Aktiv 112 / 130 40% 1 29.05.2027 -
Araphat Mohammed Berekum Chelsea Aktiv 94 / 113 40% 1 26.05.2027 -
Stanley Mills Oxford United Aktiv 119 / 123 40% 4 23.05.2027 -
Ilyas Ansah Hull City Aktiv 137 / 134 40% 4 23.05.2027 -
Oswin Appollis Orlando Pirates Aktiv 127 / 128 40% 2 21.05.2027 -
Morgan Whittaker Middlesbrough Aktiv 132 / 134 40% 4 20.05.2027 -
Isaiah Jones Luton Town Aktiv 118 / 122 40% 1 20.05.2027 -
Giorgi Chakvetadze Watford Aktiv 117 / 128 40% 3 19.05.2027 -
David Turnbull Cardiff City Aktiv 111 / 123 40% 3 19.05.2027 -
Jack McGlynn Stoke City Aktiv 128 / 130 40% 3 18.05.2027 -
Mohamed Belloumi Hull City Aktiv 133 / 140 40% 2 18.05.2027 Mehr Infos nötig
Jesús Rodríguez Como Aktiv 154 / 147 40% 3 17.05.2027 -
Luke Baartman ES Mostaganem Aktiv 96 / 106 40% 1 17.05.2027 -
Kwadwo Baah Watford Aktiv 118 / 132 40% 3 16.05.2027 -
Adam Wharton Crystal Palace Aktiv 158 / 155 40% 2 14.05.2027 -
Welington Southampton Aktiv 128 / 135 40% 2 09.05.2027 -
Ethan Galbraith Swansea City Aktiv 129 / 136 40% 2 08.05.2027 -
Enzo Le Fée Sunderland Aktiv 128 / 142 40% 3 07.05.2027 -
Quinten Timber Crystal Palace Aktiv 147 / 148 40% 2 05.05.2027 -
Isaac Price West Bromwich Albion Aktiv 126 / 132 40% 1 04.05.2027 -
Ali Ahmed Norwich City Aktiv 113 / 123 40% 1 04.05.2027 -
Othmane Maamma Watford Aktiv 134 / 127 40% 4 03.05.2027 -
Tom Fellows Southampton Aktiv 140 / 133 40% 2 02.05.2027 -
Tyler Goodrham Oxford United Aktiv 133 / 122 40% 1 30.04.2027 -
Dávid Strelec Middlesbrough Aktiv 146 / 138 40% 1 29.04.2027 -
Kutlwano Letlhaku Ajax Cape Town Aktiv 126 / 127 40% 1 29.04.2027 -
Louie Barry Sheffield Wednesday Aktiv 118 / 119 40% 1 26.04.2027 -
Nicolò Cambiaghi Bologna Aktiv 146 / 138 40% 1 24.04.2027 -
Ronald Swansea City Aktiv 134 / 127 40% 1 23.04.2027 -
Adrien Truffert Bournemouth Aktiv 150 / 145 40% 3 21.04.2027 -
Matt O'Riley Brighton Aktiv 149 / 141 40% 1 21.04.2027 -
Ryan Sessegnon Fulham Aktiv 137 / 147 40% 2 20.04.2027 -
Finn Azaz Southampton Aktiv 134 / 129 40% 2 18.04.2027 -
Yussif Saidu Zaragoza Aktiv 118 / 129 40% 1 17.04.2027 -
Max Bird Birmingham Aktiv 131 / 126 40% 3 15.04.2027 -
Romano Schmid Frosinone Aktiv 137 / 141 40% 1 14.04.2027 -
Tyrese Campbell Sheffield United Aktiv 123 / 122 40% 3 09.04.2027 -
Josh Tymon Swansea City Aktiv 130 / 128 40% 2 08.04.2027 -
Zeidane Inoussa Swansea City Aktiv 127 / 121 40% 1 07.04.2027 -
David Ozoh Derby County Aktiv 114 / 124 40% 1 05.04.2027 -
Peter Amidu Acquah Asante Kotoko Aktiv 97 / 104 40% 1 05.04.2027 -
Wilson Isidor Sunderland Aktiv 134 / 133 40% 4 02.04.2027 -
Amine Adli Bournemouth Aktiv 153 / 144 40% 1 27.03.2027 -
Carlos Vicente Birmingham Aktiv 139 / 147 40% 1 25.03.2027 -
Kwame Poku Queens Park Rangers Aktiv 125 / 126 40% 1 13.03.2027 -
Jack Rudoni Coventry City Aktiv 141 / 132 40% 1 12.03.2027 -
Gonzalo Fulham Aktiv 133 / 151 40% 2 11.03.2027 -
Georginio Rutter Brighton Aktiv 149 / 149 40% 2 08.03.2027 -
Richard Koné Queens Park Rangers Aktiv 124 / 127 40% 1 01.03.2027 -
Zack Steffen Spartak Moscow Aktiv 121 / 131 40% 1 26.01.2027 -
Brian Bwire Polokwane City Aktiv 86 / 84 40% 1 26.01.2027 -
Óscar Mingueza Crystal Palace Aktiv 141 / 150 40% 1 11.01.2027 -
Murillo Nottingham Forest Aktiv 158 / 151 40% 1 11.01.2027 -
Konstantin Tyukavin Inter Aktiv 132 / 133 66% 1 01.01.2027 -
Toni Fruk KV Mechelen Aktiv 132 / 133 89% 1 01.01.2027 Befürworten
Andreas Trimmel Red Bull Salzburg Aktiv 131 / 131 60% 1 01.01.2027 -
Kota Tawaratsumida River Plate Aktiv 133 / 136 66% 1 01.01.2027 -
Toti Wolverhampton Aktiv 126 / 133 40% 1 01.01.2027 -
Bénie Traoré New York City Aktiv 128 / 121 40% 1 31.12.2026 -
Yousef Salech Cardiff City Aktiv 125 / 129 40% 2 30.12.2026 -
Etiosa Ighodaro Kaizer Chiefs Aktiv 101 / 104 40% 3 28.12.2026 -
Mohammed Yahaya Great Olympics Aktiv 87 / 91 40% 2 27.12.2026 -
Sibusiso Tshabalala Polokwane City Aktiv 96 / 93 40% 1 27.12.2026 -
Dom Ballard Leyton Orient Aktiv 119 / 123 40% 1 22.12.2026 -
Manfred Ugalde Spartak Moscow Aktiv 119 / 126 40% 1 18.12.2026 -
Prince Ukachukwu Sumgayit Aktiv 90 / 97 40% 1 18.12.2026 -
Ammar Ramadan DAC Dunajska Streda Aktiv 114 / 115 40% 1 17.12.2026 -
Ruben van Bommel Ferencvaros Aktiv 142 / 136 40% 1 14.12.2026 -
Evidence Makgopa Orlando Pirates Aktiv 114 / 109 40% 1 13.12.2026 -
Kévin Denkey FC Cincinnati Aktiv 118 / 136 40% 1 06.12.2026 -
Everton Bala Levski Aktiv 123 / 127 40% 1 06.12.2026 -
Luis Vázquez Birmingham Aktiv 141 / 132 40% 1 03.12.2026 -
Robert Mizo Ashanti Gold Aktiv 100 / 95 40% 1 24.11.2026 -
Bongani Mothiba SuperSport United Aktiv 99 / 85 40% 1 24.11.2026 -
Yeangel Montero Naxxar Lions Aktiv 105 / 106 40% 1 18.11.2026 -
Michael Kayode Brentford Aktiv 150 / 143 40% 1 18.11.2026 -
Facundo Mura Inter Miami CF Aktiv 113 / 124 40% 1 18.11.2026 -
Leonardo Campana New England Revolution Aktiv 117 / 131 40% 1 16.11.2026 -
Wessam Abou Ali Columbus Crew Aktiv 138 / 130 40% 2 13.11.2026 -
Mandla Mahlangu Ajax Cape Town Aktiv 110 / 105 40% 1 10.11.2026 -
Razvan Balasa Crvena Zvezda Aktiv 134 / 154 40% 1 09.11.2026 -
Brayan León Mamelodi Sundowns Aktiv 129 / 112 40% 1 09.11.2026 -
Ramiro Ruiz Rodríguez Atlético Tucumán Aktiv 124 / 123 40% 1 07.11.2026 -
Kelvin Yeboah Minnesota United FC Aktiv 138 / 127 40% 1 05.11.2026 -
Aune Heggebø West Bromwich Albion Aktiv 137 / 122 40% 1 05.11.2026 -
Roman Celentano FC Cincinnati Aktiv 132 / 112 40% 1 18.08.2026 -
Matt Freese New York City Aktiv 118 / 128 40% 1 18.08.2026 -